sensor_id;sensor_type;location;lat;lon;timestamp;temperature;humidity
23629;DHT22;11991;57.150;-2.134;2022-09-21T00:01:28;14.90;99.90
23629;DHT22;11991;57.150;-2.134;2022-09-21T00:03:59;14.80;99.90
23629;DHT22;11991;57.150;-2.134;2022-09-21T00:06:28;14.80;99.90
23629;DHT22;11991;57.150;-2.134;2022-09-21T00:08:56;14.80;99.90
23629;DHT22;11991;57.150;-2.134;2022-09-21T00:11:29;14.80;99.90
23629;DHT22;11991;57.150;-2.134;2022-09-21T00:14:06;14.70;99.90
23629;DHT22;11991;57.150;-2.134;2022-09-21T00:16:35;14.70;99.90
23629;DHT22;11991;57.150;-2.134;2022-09-21T00:19:02;14.70;99.90
23629;DHT22;11991;57.150;-2.134;2022-09-21T00:21:30;14.70;99.90
23629;DHT22;11991;57.150;-2.134;2022-09-21T00:23:58;14.70;99.90
23629;DHT22;11991;57.150;-2.134;2022-09-21T00:26:26;14.70;99.90
23629;DHT22;11991;57.150;-2.134;2022-09-21T00:28:55;14.70;99.90
23629;DHT22;11991;57.150;-2.134;2022-09-21T00:31:23;14.70;99.90
23629;DHT22;11991;57.150;-2.134;2022-09-21T00:33:51;14.70;99.90
23629;DHT22;11991;57.150;-2.134;2022-09-21T00:36:20;14.70;99.90
23629;DHT22;11991;57.150;-2.134;2022-09-21T00:38:50;14.70;99.90
23629;DHT22;11991;57.150;-2.134;2022-09-21T00:41:18;14.60;99.90
23629;DHT22;11991;57.150;-2.134;2022-09-21T00:46:42;14.60;99.90
23629;DHT22;11991;57.150;-2.134;2022-09-21T00:49:11;14.60;99.90
23629;DHT22;11991;57.150;-2.134;2022-09-21T00:51:39;14.60;99.90
23629;DHT22;11991;57.150;-2.134;2022-09-21T00:54:10;14.60;99.90
23629;DHT22;11991;57.150;-2.134;2022-09-21T00:56:42;14.50;99.90
23629;DHT22;11991;57.150;-2.134;2022-09-21T00:59:11;14.50;99.90
23629;DHT22;11991;57.150;-2.134;2022-09-21T01:01:40;14.40;99.90
23629;DHT22;11991;57.150;-2.134;2022-09-21T01:04:09;14.40;99.90
23629;DHT22;11991;57.150;-2.134;2022-09-21T01:06:37;14.40;99.90
23629;DHT22;11991;57.150;-2.134;2022-09-21T01:09:06;14.30;99.90
23629;DHT22;11991;57.150;-2.134;2022-09-21T01:14:30;14.20;99.90
23629;DHT22;11991;57.150;-2.134;2022-09-21T01:24:42;14.10;99.90
23629;DHT22;11991;57.150;-2.134;2022-09-21T01:27:25;14.10;99.90
23629;DHT22;11991;57.150;-2.134;2022-09-21T01:32:33;14.10;99.90
23629;DHT22;11991;57.150;-2.134;2022-09-21T01:35:16;14.10;99.90
23629;DHT22;11991;57.150;-2.134;2022-09-21T01:37:50;14.00;99.90
23629;DHT22;11991;57.150;-2.134;2022-09-21T01:40:30;14.00;99.90
23629;DHT22;11991;57.150;-2.134;2022-09-21T01:43:04;14.00;99.90
23629;DHT22;11991;57.150;-2.134;2022-09-21T01:45:37;14.00;99.90
23629;DHT22;11991;57.150;-2.134;2022-09-21T01:48:07;14.10;99.90
23629;DHT22;11991;57.150;-2.134;2022-09-21T01:50:40;14.10;99.90
23629;DHT22;11991;57.150;-2.134;2022-09-21T01:53:16;14.00;99.90
23629;DHT22;11991;57.150;-2.134;2022-09-21T01:55:49;14.00;99.90
23629;DHT22;11991;57.150;-2.134;2022-09-21T01:58:32;13.90;99.90
23629;DHT22;11991;57.150;-2.134;2022-09-21T02:01:02;14.00;99.90
23629;DHT22;11991;57.150;-2.134;2022-09-21T02:03:55;13.90;99.90
23629;DHT22;11991;57.150;-2.134;2022-09-21T02:06:27;13.90;99.90
23629;DHT22;11991;57.150;-2.134;2022-09-21T02:08:56;13.80;99.90
23629;DHT22;11991;57.150;-2.134;2022-09-21T02:11:24;13.80;99.90
23629;DHT22;11991;57.150;-2.134;2022-09-21T02:13:52;13.80;99.90
23629;DHT22;11991;57.150;-2.134;2022-09-21T02:19:11;13.70;99.90
23629;DHT22;11991;57.150;-2.134;2022-09-21T02:21:57;13.70;99.90
23629;DHT22;11991;57.150;-2.134;2022-09-21T02:27:49;13.70;99.90
23629;DHT22;11991;57.150;-2.134;2022-09-21T02:30:22;13.70;99.90
23629;DHT22;11991;57.150;-2.134;2022-09-21T02:35:42;13.60;99.90
23629;DHT22;11991;57.150;-2.134;2022-09-21T02:44:17;13.60;99.90
23629;DHT22;11991;57.150;-2.134;2022-09-21T02:47:02;13.60;99.90
23629;DHT22;11991;57.150;-2.134;2022-09-21T02:49:34;13.60;99.90
23629;DHT22;11991;57.150;-2.134;2022-09-21T02:52:09;13.60;99.90
23629;DHT22;11991;57.150;-2.134;2022-09-21T02:54:38;13.60;99.90
23629;DHT22;11991;57.150;-2.134;2022-09-21T02:57:06;13.50;99.90
23629;DHT22;11991;57.150;-2.134;2022-09-21T02:59:34;13.50;99.90
23629;DHT22;11991;57.150;-2.134;2022-09-21T03:02:01;13.50;99.90
23629;DHT22;11991;57.150;-2.134;2022-09-21T03:04:32;13.50;99.90
23629;DHT22;11991;57.150;-2.134;2022-09-21T03:06:59;13.50;99.90
23629;DHT22;11991;57.150;-2.134;2022-09-21T03:09:26;13.40;99.90
23629;DHT22;11991;57.150;-2.134;2022-09-21T03:11:53;13.40;99.90
23629;DHT22;11991;57.150;-2.134;2022-09-21T03:14:21;13.40;99.90
23629;DHT22;11991;57.150;-2.134;2022-09-21T03:16:48;13.40;99.90
23629;DHT22;11991;57.150;-2.134;2022-09-21T03:19:16;13.40;99.90
23629;DHT22;11991;57.150;-2.134;2022-09-21T03:21:43;13.40;99.90
23629;DHT22;11991;57.150;-2.134;2022-09-21T03:24:11;13.40;99.90
23629;DHT22;11991;57.150;-2.134;2022-09-21T03:26:38;13.30;99.90
23629;DHT22;11991;57.150;-2.134;2022-09-21T03:29:05;13.30;99.90
23629;DHT22;11991;57.150;-2.134;2022-09-21T03:31:32;13.30;99.90
23629;DHT22;11991;57.150;-2.134;2022-09-21T03:34:00;13.40;99.90
23629;DHT22;11991;57.150;-2.134;2022-09-21T03:36:27;13.40;99.90
23629;DHT22;11991;57.150;-2.134;2022-09-21T03:38:54;13.40;99.90
23629;DHT22;11991;57.150;-2.134;2022-09-21T03:41:21;13.40;99.90
23629;DHT22;11991;57.150;-2.134;2022-09-21T03:43:49;13.40;99.90
23629;DHT22;11991;57.150;-2.134;2022-09-21T03:46:16;13.40;99.90
23629;DHT22;11991;57.150;-2.134;2022-09-21T03:48:43;13.40;99.90
23629;DHT22;11991;57.150;-2.134;2022-09-21T03:51:13;13.40;99.90
23629;DHT22;11991;57.150;-2.134;2022-09-21T03:53:40;13.50;99.90
23629;DHT22;11991;57.150;-2.134;2022-09-21T03:56:07;13.40;99.90
23629;DHT22;11991;57.150;-2.134;2022-09-21T03:58:34;13.40;99.90
23629;DHT22;11991;57.150;-2.134;2022-09-21T04:01:02;13.40;99.90
23629;DHT22;11991;57.150;-2.134;2022-09-21T04:03:30;13.40;99.90
23629;DHT22;11991;57.150;-2.134;2022-09-21T04:05:57;13.40;99.90
23629;DHT22;11991;57.150;-2.134;2022-09-21T04:08:24;13.30;99.90
23629;DHT22;11991;57.150;-2.134;2022-09-21T04:10:51;13.30;99.90
23629;DHT22;11991;57.150;-2.134;2022-09-21T04:13:19;13.30;99.90
23629;DHT22;11991;57.150;-2.134;2022-09-21T04:15:46;13.30;99.90
23629;DHT22;11991;57.150;-2.134;2022-09-21T04:18:13;13.30;99.90
23629;DHT22;11991;57.150;-2.134;2022-09-21T04:20:41;13.30;99.90
23629;DHT22;11991;57.150;-2.134;2022-09-21T04:23:08;13.30;99.90
23629;DHT22;11991;57.150;-2.134;2022-09-21T04:25:35;13.30;99.90
23629;DHT22;11991;57.150;-2.134;2022-09-21T04:28:03;13.20;99.90
23629;DHT22;11991;57.150;-2.134;2022-09-21T04:30:30;13.20;99.90
23629;DHT22;11991;57.150;-2.134;2022-09-21T04:33:03;13.20;99.90
23629;DHT22;11991;57.150;-2.134;2022-09-21T04:35:31;13.10;99.90
23629;DHT22;11991;57.150;-2.134;2022-09-21T04:37:58;13.10;99.90
23629;DHT22;11991;57.150;-2.134;2022-09-21T04:40:25;13.10;99.90
23629;DHT22;11991;57.150;-2.134;2022-09-21T04:42:54;13.00;99.90
23629;DHT22;11991;57.150;-2.134;2022-09-21T04:45:22;13.00;99.90
23629;DHT22;11991;57.150;-2.134;2022-09-21T04:47:49;12.90;99.90
23629;DHT22;11991;57.150;-2.134;2022-09-21T04:50:17;12.90;99.90
23629;DHT22;11991;57.150;-2.134;2022-09-21T04:52:45;12.90;99.90
23629;DHT22;11991;57.150;-2.134;2022-09-21T04:55:13;12.90;99.90
23629;DHT22;11991;57.150;-2.134;2022-09-21T04:57:40;12.90;99.90
23629;DHT22;11991;57.150;-2.134;2022-09-21T05:00:08;12.90;99.90
23629;DHT22;11991;57.150;-2.134;2022-09-21T05:02:36;12.80;99.90
23629;DHT22;11991;57.150;-2.134;2022-09-21T05:05:03;12.90;99.90
23629;DHT22;11991;57.150;-2.134;2022-09-21T05:07:30;12.90;99.90
23629;DHT22;11991;57.150;-2.134;2022-09-21T05:09:57;12.90;99.90
23629;DHT22;11991;57.150;-2.134;2022-09-21T05:12:34;12.90;99.90
23629;DHT22;11991;57.150;-2.134;2022-09-21T05:15:07;12.90;99.90
23629;DHT22;11991;57.150;-2.134;2022-09-21T05:17:34;12.90;99.90
23629;DHT22;11991;57.150;-2.134;2022-09-21T05:20:02;12.90;99.90
23629;DHT22;11991;57.150;-2.134;2022-09-21T05:22:30;12.90;99.90
23629;DHT22;11991;57.150;-2.134;2022-09-21T05:24:57;12.90;99.90
23629;DHT22;11991;57.150;-2.134;2022-09-21T05:27:24;12.90;99.90
23629;DHT22;11991;57.150;-2.134;2022-09-21T05:29:51;12.90;99.90
23629;DHT22;11991;57.150;-2.134;2022-09-21T05:35:23;12.90;99.90
23629;DHT22;11991;57.150;-2.134;2022-09-21T05:40:33;12.80;99.90
23629;DHT22;11991;57.150;-2.134;2022-09-21T05:43:01;12.80;99.90
23629;DHT22;11991;57.150;-2.134;2022-09-21T05:45:29;12.80;99.90
23629;DHT22;11991;57.150;-2.134;2022-09-21T05:48:05;12.80;99.90
23629;DHT22;11991;57.150;-2.134;2022-09-21T05:55:59;12.80;99.90
23629;DHT22;11991;57.150;-2.134;2022-09-21T05:58:50;12.80;99.90
23629;DHT22;11991;57.150;-2.134;2022-09-21T06:01:42;12.70;99.90
23629;DHT22;11991;57.150;-2.134;2022-09-21T06:04:12;12.80;99.90
23629;DHT22;11991;57.150;-2.134;2022-09-21T06:07:05;12.70;99.90
23629;DHT22;11991;57.150;-2.134;2022-09-21T06:09:32;12.80;99.90
23629;DHT22;11991;57.150;-2.134;2022-09-21T06:11:59;12.70;99.90
23629;DHT22;11991;57.150;-2.134;2022-09-21T06:14:26;12.80;99.90
23629;DHT22;11991;57.150;-2.134;2022-09-21T06:16:54;12.70;99.90
23629;DHT22;11991;57.150;-2.134;2022-09-21T06:19:21;12.70;99.90
23629;DHT22;11991;57.150;-2.134;2022-09-21T06:21:49;12.80;99.90
23629;DHT22;11991;57.150;-2.134;2022-09-21T06:24:16;12.80;99.90
23629;DHT22;11991;57.150;-2.134;2022-09-21T06:26:43;12.80;99.90
23629;DHT22;11991;57.150;-2.134;2022-09-21T06:29:10;12.80;99.90
23629;DHT22;11991;57.150;-2.134;2022-09-21T06:31:38;12.90;99.90
23629;DHT22;11991;57.150;-2.134;2022-09-21T06:34:05;12.90;99.90
23629;DHT22;11991;57.150;-2.134;2022-09-21T06:36:32;12.90;99.90
23629;DHT22;11991;57.150;-2.134;2022-09-21T06:38:59;13.00;99.90
23629;DHT22;11991;57.150;-2.134;2022-09-21T06:41:27;13.00;99.90
23629;DHT22;11991;57.150;-2.134;2022-09-21T06:43:54;13.10;99.90
23629;DHT22;11991;57.150;-2.134;2022-09-21T06:46:23;13.10;99.90
23629;DHT22;11991;57.150;-2.134;2022-09-21T06:48:50;13.10;99.90
23629;DHT22;11991;57.150;-2.134;2022-09-21T06:51:17;13.10;99.90
23629;DHT22;11991;57.150;-2.134;2022-09-21T06:53:46;13.10;99.90
23629;DHT22;11991;57.150;-2.134;2022-09-21T06:56:14;13.20;99.90
23629;DHT22;11991;57.150;-2.134;2022-09-21T06:58:42;13.20;99.90
23629;DHT22;11991;57.150;-2.134;2022-09-21T07:01:11;13.30;99.90
23629;DHT22;11991;57.150;-2.134;2022-09-21T07:03:40;13.30;99.90
23629;DHT22;11991;57.150;-2.134;2022-09-21T07:06:10;13.30;99.90
23629;DHT22;11991;57.150;-2.134;2022-09-21T07:08:42;13.30;99.90
23629;DHT22;11991;57.150;-2.134;2022-09-21T07:11:30;13.30;99.90
23629;DHT22;11991;57.150;-2.134;2022-09-21T07:13:57;13.40;99.90
23629;DHT22;11991;57.150;-2.134;2022-09-21T07:16:25;13.40;99.90
23629;DHT22;11991;57.150;-2.134;2022-09-21T07:18:54;13.50;99.90
23629;DHT22;11991;57.150;-2.134;2022-09-21T07:21:21;13.50;99.90
23629;DHT22;11991;57.150;-2.134;2022-09-21T07:23:48;13.60;99.90
23629;DHT22;11991;57.150;-2.134;2022-09-21T07:26:15;13.70;99.90
23629;DHT22;11991;57.150;-2.134;2022-09-21T07:28:43;13.70;99.90
23629;DHT22;11991;57.150;-2.134;2022-09-21T07:31:13;13.70;99.90
23629;DHT22;11991;57.150;-2.134;2022-09-21T07:33:42;13.80;99.90
23629;DHT22;11991;57.150;-2.134;2022-09-21T07:36:10;13.80;99.90
23629;DHT22;11991;57.150;-2.134;2022-09-21T07:38:41;13.90;99.90
23629;DHT22;11991;57.150;-2.134;2022-09-21T07:41:13;13.90;99.90
23629;DHT22;11991;57.150;-2.134;2022-09-21T07:43:40;14.00;99.90
23629;DHT22;11991;57.150;-2.134;2022-09-21T07:46:10;14.00;99.90
23629;DHT22;11991;57.150;-2.134;2022-09-21T07:48:37;14.10;99.90
23629;DHT22;11991;57.150;-2.134;2022-09-21T07:51:07;14.20;99.90
23629;DHT22;11991;57.150;-2.134;2022-09-21T07:53:35;14.20;99.90
23629;DHT22;11991;57.150;-2.134;2022-09-21T07:56:05;14.30;99.90
23629;DHT22;11991;57.150;-2.134;2022-09-21T07:58:33;14.40;99.90
23629;DHT22;11991;57.150;-2.134;2022-09-21T08:01:20;14.50;99.90
23629;DHT22;11991;57.150;-2.134;2022-09-21T08:03:48;14.60;99.90
23629;DHT22;11991;57.150;-2.134;2022-09-21T08:06:15;14.60;99.90
23629;DHT22;11991;57.150;-2.134;2022-09-21T08:08:43;14.70;99.90
23629;DHT22;11991;57.150;-2.134;2022-09-21T08:11:10;14.80;99.90
23629;DHT22;11991;57.150;-2.134;2022-09-21T08:13:37;14.80;99.90
23629;DHT22;11991;57.150;-2.134;2022-09-21T08:16:05;14.90;99.90
23629;DHT22;11991;57.150;-2.134;2022-09-21T08:18:36;15.00;99.90
23629;DHT22;11991;57.150;-2.134;2022-09-21T08:21:04;15.00;99.90
23629;DHT22;11991;57.150;-2.134;2022-09-21T08:23:31;15.10;99.90
23629;DHT22;11991;57.150;-2.134;2022-09-21T08:26:00;15.10;99.90
23629;DHT22;11991;57.150;-2.134;2022-09-21T08:28:28;15.20;99.90
23629;DHT22;11991;57.150;-2.134;2022-09-21T08:31:00;15.20;99.90
23629;DHT22;11991;57.150;-2.134;2022-09-21T08:33:28;15.30;99.90
23629;DHT22;11991;57.150;-2.134;2022-09-21T08:35:58;15.40;99.90
23629;DHT22;11991;57.150;-2.134;2022-09-21T08:38:26;15.40;99.90
23629;DHT22;11991;57.150;-2.134;2022-09-21T08:40:53;15.50;99.90
23629;DHT22;11991;57.150;-2.134;2022-09-21T08:45:54;15.60;99.90
23629;DHT22;11991;57.150;-2.134;2022-09-21T08:48:25;15.70;99.90
23629;DHT22;11991;57.150;-2.134;2022-09-21T08:51:04;15.70;99.90
23629;DHT22;11991;57.150;-2.134;2022-09-21T08:53:35;15.80;99.90
23629;DHT22;11991;57.150;-2.134;2022-09-21T08:56:04;15.80;99.90
23629;DHT22;11991;57.150;-2.134;2022-09-21T08:58:32;15.90;99.90
23629;DHT22;11991;57.150;-2.134;2022-09-21T09:16:17;16.20;99.90
23629;DHT22;11991;57.150;-2.134;2022-09-21T09:18:53;16.30;99.90
23629;DHT22;11991;57.150;-2.134;2022-09-21T09:21:36;16.30;99.90
23629;DHT22;11991;57.150;-2.134;2022-09-21T09:27:06;16.40;99.90
23629;DHT22;11991;57.150;-2.134;2022-09-21T09:35:23;16.60;99.90
23629;DHT22;11991;57.150;-2.134;2022-09-21T09:37:56;16.60;99.90
23629;DHT22;11991;57.150;-2.134;2022-09-21T09:43:35;16.50;99.90
23629;DHT22;11991;57.150;-2.134;2022-09-21T09:52:03;16.50;99.90
23629;DHT22;11991;57.150;-2.134;2022-09-21T09:54:33;16.50;99.90
23629;DHT22;11991;57.150;-2.134;2022-09-21T09:57:03;16.60;99.90
23629;DHT22;11991;57.150;-2.134;2022-09-21T09:59:34;16.60;99.90
23629;DHT22;11991;57.150;-2.134;2022-09-21T10:02:06;16.60;99.90
23629;DHT22;11991;57.150;-2.134;2022-09-21T10:04:34;16.60;99.90
23629;DHT22;11991;57.150;-2.134;2022-09-21T10:07:01;16.70;99.90
23629;DHT22;11991;57.150;-2.134;2022-09-21T10:09:31;16.60;99.90
23629;DHT22;11991;57.150;-2.134;2022-09-21T10:14:51;16.70;99.90
23629;DHT22;11991;57.150;-2.134;2022-09-21T10:17:19;16.60;99.90
23629;DHT22;11991;57.150;-2.134;2022-09-21T10:19:47;16.60;99.90
23629;DHT22;11991;57.150;-2.134;2022-09-21T10:22:17;16.60;99.90
23629;DHT22;11991;57.150;-2.134;2022-09-21T10:24:50;16.60;99.90
23629;DHT22;11991;57.150;-2.134;2022-09-21T10:27:25;16.60;99.90
23629;DHT22;11991;57.150;-2.134;2022-09-21T10:29:53;16.60;99.90
23629;DHT22;11991;57.150;-2.134;2022-09-21T10:32:25;16.60;99.90
23629;DHT22;11991;57.150;-2.134;2022-09-21T10:35:22;16.60;99.90
23629;DHT22;11991;57.150;-2.134;2022-09-21T10:38:10;16.70;99.90
23629;DHT22;11991;57.150;-2.134;2022-09-21T10:40:38;16.80;99.90
23629;DHT22;11991;57.150;-2.134;2022-09-21T10:43:26;16.80;99.90
23629;DHT22;11991;57.150;-2.134;2022-09-21T10:46:01;16.90;99.90
23629;DHT22;11991;57.150;-2.134;2022-09-21T10:48:28;17.00;99.90
23629;DHT22;11991;57.150;-2.134;2022-09-21T10:50:56;17.10;99.90
23629;DHT22;11991;57.150;-2.134;2022-09-21T10:53:35;17.10;99.90
23629;DHT22;11991;57.150;-2.134;2022-09-21T10:59:19;17.30;99.90
23629;DHT22;11991;57.150;-2.134;2022-09-21T11:01:53;17.30;99.90
23629;DHT22;11991;57.150;-2.134;2022-09-21T11:04:46;17.40;99.90
23629;DHT22;11991;57.150;-2.134;2022-09-21T11:08:09;17.50;99.90
23629;DHT22;11991;57.150;-2.134;2022-09-21T11:10:47;17.50;99.90
23629;DHT22;11991;57.150;-2.134;2022-09-21T11:13:40;17.60;99.90
23629;DHT22;11991;57.150;-2.134;2022-09-21T11:16:18;17.60;99.90
23629;DHT22;11991;57.150;-2.134;2022-09-21T11:21:42;17.60;99.90
23629;DHT22;11991;57.150;-2.134;2022-09-21T11:27:22;17.80;99.90
23629;DHT22;11991;57.150;-2.134;2022-09-21T11:30:14;17.80;99.90
23629;DHT22;11991;57.150;-2.134;2022-09-21T11:33:07;17.80;99.90
23629;DHT22;11991;57.150;-2.134;2022-09-21T11:44:13;18.00;99.90
23629;DHT22;11991;57.150;-2.134;2022-09-21T11:58:00;18.20;99.90
23629;DHT22;11991;57.150;-2.134;2022-09-21T12:00:33;18.20;99.90
23629;DHT22;11991;57.150;-2.134;2022-09-21T12:11:43;18.30;99.90
23629;DHT22;11991;57.150;-2.134;2022-09-21T12:15:00;18.30;99.90
23629;DHT22;11991;57.150;-2.134;2022-09-21T12:20:38;18.40;99.90
23629;DHT22;11991;57.150;-2.134;2022-09-21T12:23:16;18.50;99.90
23629;DHT22;11991;57.150;-2.134;2022-09-21T12:25:50;18.60;99.90
23629;DHT22;11991;57.150;-2.134;2022-09-21T12:31:08;18.60;99.90
23629;DHT22;11991;57.150;-2.134;2022-09-21T12:33:47;18.70;99.90
23629;DHT22;11991;57.150;-2.134;2022-09-21T12:36:35;18.70;99.90
23629;DHT22;11991;57.150;-2.134;2022-09-21T12:42:48;18.80;99.90
23629;DHT22;11991;57.150;-2.134;2022-09-21T12:45:54;18.90;99.90
23629;DHT22;11991;57.150;-2.134;2022-09-21T12:48:34;18.90;99.90
23629;DHT22;11991;57.150;-2.134;2022-09-21T12:51:35;18.90;99.90
23629;DHT22;11991;57.150;-2.134;2022-09-21T12:54:15;18.90;99.90
23629;DHT22;11991;57.150;-2.134;2022-09-21T12:56:59;18.90;99.90
23629;DHT22;11991;57.150;-2.134;2022-09-21T13:13:28;18.90;99.90
23629;DHT22;11991;57.150;-2.134;2022-09-21T13:15:57;18.90;99.90
23629;DHT22;11991;57.150;-2.134;2022-09-21T13:18:28;18.80;99.90
23629;DHT22;11991;57.150;-2.134;2022-09-21T13:21:19;18.90;99.90
23629;DHT22;11991;57.150;-2.134;2022-09-21T13:24:00;18.90;99.90
23629;DHT22;11991;57.150;-2.134;2022-09-21T13:26:37;19.00;99.90
23629;DHT22;11991;57.150;-2.134;2022-09-21T13:29:26;18.90;99.90
23629;DHT22;11991;57.150;-2.134;2022-09-21T13:34:40;19.00;99.90
23629;DHT22;11991;57.150;-2.134;2022-09-21T13:37:12;18.90;99.90
23629;DHT22;11991;57.150;-2.134;2022-09-21T13:44:57;18.80;99.90
23629;DHT22;11991;57.150;-2.134;2022-09-21T13:47:31;18.70;99.90
23629;DHT22;11991;57.150;-2.134;2022-09-21T13:50:00;18.70;99.90
23629;DHT22;11991;57.150;-2.134;2022-09-21T13:55:21;18.70;99.90
23629;DHT22;11991;57.150;-2.134;2022-09-21T13:57:51;18.80;99.90
23629;DHT22;11991;57.150;-2.134;2022-09-21T14:05:32;18.90;99.90
23629;DHT22;11991;57.150;-2.134;2022-09-21T14:08:02;18.90;99.90
23629;DHT22;11991;57.150;-2.134;2022-09-21T14:10:33;18.90;99.90
23629;DHT22;11991;57.150;-2.134;2022-09-21T14:13:03;19.00;99.90
23629;DHT22;11991;57.150;-2.134;2022-09-21T14:15:36;19.00;99.90
23629;DHT22;11991;57.150;-2.134;2022-09-21T14:23:37;19.00;99.90
23629;DHT22;11991;57.150;-2.134;2022-09-21T14:26:35;19.00;99.90
23629;DHT22;11991;57.150;-2.134;2022-09-21T14:29:19;18.90;99.90
23629;DHT22;11991;57.150;-2.134;2022-09-21T14:31:48;18.80;99.90
23629;DHT22;11991;57.150;-2.134;2022-09-21T14:34:22;18.70;99.90
23629;DHT22;11991;57.150;-2.134;2022-09-21T14:36:55;18.80;99.90
23629;DHT22;11991;57.150;-2.134;2022-09-21T14:39:32;18.70;99.90
23629;DHT22;11991;57.150;-2.134;2022-09-21T14:42:12;18.70;99.90
23629;DHT22;11991;57.150;-2.134;2022-09-21T14:44:43;18.70;99.90
23629;DHT22;11991;57.150;-2.134;2022-09-21T14:55:19;18.50;99.90
23629;DHT22;11991;57.150;-2.134;2022-09-21T14:57:58;18.50;99.90
23629;DHT22;11991;57.150;-2.134;2022-09-21T15:00:38;18.40;99.90
23629;DHT22;11991;57.150;-2.134;2022-09-21T15:07:01;18.40;99.90
23629;DHT22;11991;57.150;-2.134;2022-09-21T15:17:58;18.30;99.90
23629;DHT22;11991;57.150;-2.134;2022-09-21T15:20:28;18.20;99.90
23629;DHT22;11991;57.150;-2.134;2022-09-21T15:23:19;18.20;99.90
23629;DHT22;11991;57.150;-2.134;2022-09-21T15:28:46;18.10;99.90
23629;DHT22;11991;57.150;-2.134;2022-09-21T15:31:39;18.10;99.90
23629;DHT22;11991;57.150;-2.134;2022-09-21T15:34:09;18.10;99.90
23629;DHT22;11991;57.150;-2.134;2022-09-21T15:36:41;18.10;99.90
23629;DHT22;11991;57.150;-2.134;2022-09-21T15:39:29;18.10;99.90
23629;DHT22;11991;57.150;-2.134;2022-09-21T15:44:37;18.20;99.90
23629;DHT22;11991;57.150;-2.134;2022-09-21T15:47:10;18.20;99.90
23629;DHT22;11991;57.150;-2.134;2022-09-21T15:49:40;18.20;99.90
23629;DHT22;11991;57.150;-2.134;2022-09-21T16:00:27;18.30;99.90
23629;DHT22;11991;57.150;-2.134;2022-09-21T16:05:50;18.20;99.90
23629;DHT22;11991;57.150;-2.134;2022-09-21T16:08:33;18.20;99.90
23629;DHT22;11991;57.150;-2.134;2022-09-21T16:13:47;18.10;99.90
23629;DHT22;11991;57.150;-2.134;2022-09-21T16:19:43;18.10;99.90
23629;DHT22;11991;57.150;-2.134;2022-09-21T16:22:39;18.00;99.90
23629;DHT22;11991;57.150;-2.134;2022-09-21T16:25:23;18.00;99.90
23629;DHT22;11991;57.150;-2.134;2022-09-21T16:28:00;17.90;99.90
23629;DHT22;11991;57.150;-2.134;2022-09-21T16:30:51;17.90;99.90
23629;DHT22;11991;57.150;-2.134;2022-09-21T16:38:52;17.90;99.90
23629;DHT22;11991;57.150;-2.134;2022-09-21T16:41:21;17.80;99.90
23629;DHT22;11991;57.150;-2.134;2022-09-21T16:43:49;17.80;99.90
23629;DHT22;11991;57.150;-2.134;2022-09-21T16:46:17;17.80;99.90
23629;DHT22;11991;57.150;-2.134;2022-09-21T16:48:45;17.80;99.90
23629;DHT22;11991;57.150;-2.134;2022-09-21T16:51:14;17.80;99.90
23629;DHT22;11991;57.150;-2.134;2022-09-21T16:53:43;17.90;99.90
23629;DHT22;11991;57.150;-2.134;2022-09-21T16:56:12;17.80;99.90
23629;DHT22;11991;57.150;-2.134;2022-09-21T16:58:41;17.80;99.90
23629;DHT22;11991;57.150;-2.134;2022-09-21T17:01:15;17.80;99.90
23629;DHT22;11991;57.150;-2.134;2022-09-21T17:03:45;17.80;99.90
23629;DHT22;11991;57.150;-2.134;2022-09-21T17:06:18;17.70;99.90
23629;DHT22;11991;57.150;-2.134;2022-09-21T17:08:46;17.60;99.90
23629;DHT22;11991;57.150;-2.134;2022-09-21T17:11:18;17.60;99.90
23629;DHT22;11991;57.150;-2.134;2022-09-21T17:13:49;17.60;99.90
23629;DHT22;11991;57.150;-2.134;2022-09-21T17:16:18;17.60;99.90
23629;DHT22;11991;57.150;-2.134;2022-09-21T17:18:47;17.50;99.90
23629;DHT22;11991;57.150;-2.134;2022-09-21T17:21:15;17.50;99.90
23629;DHT22;11991;57.150;-2.134;2022-09-21T17:23:43;17.40;99.90
23629;DHT22;11991;57.150;-2.134;2022-09-21T17:26:16;17.40;99.90
23629;DHT22;11991;57.150;-2.134;2022-09-21T17:28:47;17.40;99.90
23629;DHT22;11991;57.150;-2.134;2022-09-21T17:31:15;17.40;99.90
23629;DHT22;11991;57.150;-2.134;2022-09-21T17:33:42;17.30;99.90
23629;DHT22;11991;57.150;-2.134;2022-09-21T17:36:13;17.30;99.90
23629;DHT22;11991;57.150;-2.134;2022-09-21T17:38:42;17.30;99.90
23629;DHT22;11991;57.150;-2.134;2022-09-21T17:41:27;17.20;99.90
23629;DHT22;11991;57.150;-2.134;2022-09-21T17:47:07;17.10;99.90
23629;DHT22;11991;57.150;-2.134;2022-09-21T17:49:38;17.00;99.90
23629;DHT22;11991;57.150;-2.134;2022-09-21T17:52:14;17.00;99.90
23629;DHT22;11991;57.150;-2.134;2022-09-21T17:55:00;17.00;99.90
23629;DHT22;11991;57.150;-2.134;2022-09-21T18:00:45;16.80;99.90
23629;DHT22;11991;57.150;-2.134;2022-09-21T18:03:22;16.80;99.90
23629;DHT22;11991;57.150;-2.134;2022-09-21T18:05:50;16.80;99.90
23629;DHT22;11991;57.150;-2.134;2022-09-21T18:08:22;16.70;99.90
23629;DHT22;11991;57.150;-2.134;2022-09-21T18:22:05;16.50;99.90
23629;DHT22;11991;57.150;-2.134;2022-09-21T18:24:37;16.50;99.90
23629;DHT22;11991;57.150;-2.134;2022-09-21T18:27:05;16.50;99.90
23629;DHT22;11991;57.150;-2.134;2022-09-21T18:29:33;16.40;99.90
23629;DHT22;11991;57.150;-2.134;2022-09-21T18:49:31;16.20;99.90
23629;DHT22;11991;57.150;-2.134;2022-09-21T18:54:33;16.20;99.90
23629;DHT22;11991;57.150;-2.134;2022-09-21T18:57:19;16.10;99.90
23629;DHT22;11991;57.150;-2.134;2022-09-21T18:59:49;16.10;99.90
23629;DHT22;11991;57.150;-2.134;2022-09-21T19:02:19;16.10;99.90
23629;DHT22;11991;57.150;-2.134;2022-09-21T19:04:47;16.10;99.90
23629;DHT22;11991;57.150;-2.134;2022-09-21T19:07:35;16.10;99.90
23629;DHT22;11991;57.150;-2.134;2022-09-21T19:10:16;16.10;99.90
23629;DHT22;11991;57.150;-2.134;2022-09-21T19:13:34;16.10;99.90
23629;DHT22;11991;57.150;-2.134;2022-09-21T19:16:20;16.10;99.90
23629;DHT22;11991;57.150;-2.134;2022-09-21T19:19:12;16.10;99.90
23629;DHT22;11991;57.150;-2.134;2022-09-21T19:22:14;16.10;99.90
23629;DHT22;11991;57.150;-2.134;2022-09-21T19:25:09;16.10;99.90
23629;DHT22;11991;57.150;-2.134;2022-09-21T19:27:57;16.00;99.90
23629;DHT22;11991;57.150;-2.134;2022-09-21T19:30:28;16.00;99.90
23629;DHT22;11991;57.150;-2.134;2022-09-21T19:32:56;16.00;99.90
23629;DHT22;11991;57.150;-2.134;2022-09-21T19:35:31;16.00;99.90
23629;DHT22;11991;57.150;-2.134;2022-09-21T19:38:00;16.00;99.90
23629;DHT22;11991;57.150;-2.134;2022-09-21T19:40:34;16.00;99.90
23629;DHT22;11991;57.150;-2.134;2022-09-21T19:45:46;16.00;99.90
23629;DHT22;11991;57.150;-2.134;2022-09-21T19:48:17;16.00;99.90
23629;DHT22;11991;57.150;-2.134;2022-09-21T19:50:54;15.90;99.90
23629;DHT22;11991;57.150;-2.134;2022-09-21T19:53:25;15.90;99.90
23629;DHT22;11991;57.150;-2.134;2022-09-21T19:56:13;15.90;99.90
23629;DHT22;11991;57.150;-2.134;2022-09-21T19:59:01;15.80;99.90
23629;DHT22;11991;57.150;-2.134;2022-09-21T20:01:54;15.80;99.90